Time;durP1;ratioP1;P1;durP2;ratioP2;P2;SDS_P1;SDS_P2;PMS_P1;PMS_P2;Temp;Humidity;BMP_temperature;BMP_pressure;BME280_temperature;BME280_humidity;BME280_pressure;Samples;Min_cycle;Max_cycle;Signal;HPM_P1;HPM_P2
2021/04/23 00:01:00;;;;;;;14.03;7.70;;;;;;;5.24;66.63;100521.35;114649;1196;103089;-84
2021/04/23 00:03:31;;;;;;;9.53;8.40;;;;;;;5.22;67.02;100519.59;114755;1196;103095;-84
2021/04/23 00:06:32;;;;;;;11.00;7.67;;;;;;;5.20;66.58;100522.24;114712;1196;103079;-82
2021/04/23 00:09:12;;;;;;;9.50;8.20;;;;;;;5.22;66.77;100519.59;114627;1196;103107;-86
2021/04/23 00:11:50;;;;;;;12.80;8.28;;;;;;;5.16;66.91;100513.44;114715;1196;103264;-85
2021/04/23 00:14:20;;;;;;;9.33;8.45;;;;;;;5.18;66.49;100521.35;114723;1196;103105;-86
2021/04/23 00:16:52;;;;;;;14.30;8.58;;;;;;;5.15;67.06;100519.59;114819;1196;103166;-82
2021/04/23 00:19:38;;;;;;;14.73;10.68;;;;;;;5.12;66.69;100513.47;114528;1196;103235;-88
2021/04/23 00:22:09;;;;;;;18.47;10.27;;;;;;;5.13;67.33;100518.73;114899;1196;103073;-86
2021/04/23 00:24:40;;;;;;;11.37;8.43;;;;;;;5.15;66.85;100524.01;114759;1196;103101;-87
2021/04/23 00:27:14;;;;;;;17.38;9.78;;;;;;;5.18;66.82;100521.35;114686;1196;103194;-87
2021/04/23 00:29:42;;;;;;;11.93;9.98;;;;;;;5.19;66.98;100517.84;114785;1196;103137;-88
2021/04/23 00:34:59;;;;;;;11.03;8.77;;;;;;;5.09;67.52;100524.01;114806;1196;103112;-84
2021/04/23 00:37:26;;;;;;;13.18;8.40;;;;;;;5.12;67.36;100526.66;114665;1196;103581;-82
2021/04/23 00:39:53;;;;;;;13.67;8.70;;;;;;;5.11;67.45;100520.48;114283;1196;103112;-87
2021/04/23 00:42:21;;;;;;;15.95;9.60;;;;;;;5.12;67.16;100526.66;114701;1197;103098;-88
2021/04/23 00:44:52;;;;;;;13.88;8.78;;;;;;;5.12;66.97;100530.17;114708;1199;103854;-83
2021/04/23 00:47:23;;;;;;;21.98;10.95;;;;;;;5.08;67.22;100524.88;114614;1196;103239;-86
2021/04/23 00:50:00;;;;;;;15.87;11.23;;;;;;;5.09;67.34;100529.29;114741;1196;103347;-87
2021/04/23 00:52:42;;;;;;;12.17;8.97;;;;;;;5.11;66.73;100524.91;114642;1196;103109;-86
2021/04/23 00:55:13;;;;;;;11.70;8.63;;;;;;;5.11;66.96;100527.54;114789;1196;103153;-86
2021/04/23 00:57:46;;;;;;;12.65;9.38;;;;;;;5.08;67.02;100538.98;115070;1196;103095;-83
2021/04/23 01:00:44;;;;;;;14.13;9.83;;;;;;;5.02;67.41;100538.98;114243;1199;103365;-83
2021/04/23 01:03:13;;;;;;;14.33;9.18;;;;;;;5.00;67.63;100532.84;114152;1200;103309;-86
2021/04/23 01:05:42;;;;;;;12.65;8.90;;;;;;;5.04;66.99;100537.23;114649;1200;103242;-85
2021/04/23 01:08:09;;;;;;;12.97;9.70;;;;;;;5.05;67.57;100528.41;114102;1200;103191;-82
2021/04/23 01:10:36;;;;;;;13.70;10.30;;;;;;;4.99;66.71;100529.30;113854;1200;104023;-85
2021/04/23 01:13:03;;;;;;;15.70;10.20;;;;;;;5.00;67.26;100538.13;114442;1200;103264;-86
2021/04/23 01:15:30;;;;;;;15.80;10.27;;;;;;;4.96;66.90;100526.67;114214;1200;103249;-85
2021/04/23 01:18:02;;;;;;;14.75;9.95;;;;;;;5.05;66.82;100532.81;114282;1200;103991;-84
2021/04/23 01:20:33;;;;;;;11.90;9.63;;;;;;;4.98;67.07;100532.81;114316;1200;103118;-84
2021/04/23 01:23:01;;;;;;;16.65;10.53;;;;;;;4.95;66.92;100529.33;114393;1200;103430;-84
2021/04/23 01:25:28;;;;;;;14.25;10.30;;;;;;;4.92;66.60;100540.77;114318;1199;103255;-86
2021/04/23 01:27:56;;;;;;;17.73;10.60;;;;;;;4.89;66.64;100535.46;114344;1199;103520;-85
2021/04/23 01:30:26;;;;;;;13.95;10.43;;;;;;;4.92;66.08;100540.77;114611;1199;103591;-86
2021/04/23 01:33:02;;;;;;;13.75;10.55;;;;;;;4.93;66.09;100537.25;114583;1199;103120;-87
2021/04/23 01:35:32;;;;;;;13.10;10.00;;;;;;;4.93;66.27;100531.07;114391;1200;103029;-86
2021/04/23 01:38:14;;;;;;;15.93;9.20;;;;;;;4.87;65.99;100531.97;114217;1199;103185;-85
2021/04/23 01:40:59;;;;;;;14.55;10.33;;;;;;;4.81;65.98;100538.13;114425;1199;103114;-82
2021/04/23 01:43:31;;;;;;;17.90;8.75;;;;;;;4.84;65.97;100543.40;114461;1199;103208;-86
2021/04/23 01:46:15;;;;;;;12.75;8.90;;;;;;;4.83;66.28;100540.77;114378;1200;103179;-85
2021/04/23 01:48:45;;;;;;;13.85;8.80;;;;;;;4.82;66.63;100539.00;114339;1200;103269;-84
2021/04/23 01:51:20;;;;;;;12.00;9.35;;;;;;;4.78;66.83;100548.66;114411;1199;103623;-87
2021/04/23 01:53:50;;;;;;;13.10;9.40;;;;;;;4.76;66.37;100549.55;114339;1199;103063;-83
2021/04/23 01:56:18;;;;;;;12.65;9.40;;;;;;;4.75;66.44;100546.04;114467;1200;103220;-84
2021/04/23 01:58:45;;;;;;;13.90;9.27;;;;;;;4.75;66.53;100548.67;114370;1199;103310;-87
2021/04/23 02:01:14;;;;;;;15.78;10.78;;;;;;;4.69;66.49;100549.56;114178;1200;103357;-85
2021/04/23 02:03:43;;;;;;;13.00;10.70;;;;;;;4.72;66.14;100548.69;113769;1200;103121;-86
2021/04/23 02:06:09;;;;;;;13.67;9.63;;;;;;;4.65;66.76;100550.45;114277;1199;103255;-87
2021/04/23 02:08:37;;;;;;;15.95;9.15;;;;;;;4.68;66.13;100552.20;114140;1199;103466;-88
2021/04/23 02:11:12;;;;;;;12.23;9.37;;;;;;;4.71;66.54;100546.92;114293;1200;103306;-88
2021/04/23 02:13:41;;;;;;;15.80;11.57;;;;;;;4.67;66.65;100558.36;114429;1199;103172;-85
2021/04/23 02:16:14;;;;;;;15.68;9.25;;;;;;;4.68;66.49;100563.63;114756;1199;103389;-86
2021/04/23 02:18:45;;;;;;;15.50;10.70;;;;;;;4.62;66.82;100560.11;114833;1196;103217;-83
2021/04/23 02:21:17;;;;;;;15.70;8.95;;;;;;;4.61;67.05;100564.52;114854;1196;103213;-88
2021/04/23 02:23:52;;;;;;;12.77;8.20;;;;;;;4.61;66.43;100561.88;114804;1196;103783;-82
2021/04/23 02:26:28;;;;;;;18.35;9.43;;;;;;;4.57;66.87;100564.49;114696;1196;103618;-87
2021/04/23 02:29:00;;;;;;;11.93;9.00;;;;;;;4.56;66.94;100560.98;114794;1196;103175;-87
2021/04/23 02:31:33;;;;;;;12.77;9.63;;;;;;;4.52;66.93;100568.01;114687;1196;103101;-87
2021/04/23 02:34:07;;;;;;;13.97;9.80;;;;;;;4.48;66.23;100560.97;114791;1196;103188;-86
2021/04/23 02:36:35;;;;;;;12.23;8.53;;;;;;;4.51;66.14;100562.73;114800;1196;103038;-86
2021/04/23 02:39:15;;;;;;;16.40;9.40;;;;;;;4.50;66.43;100567.11;114773;1196;103233;-87
2021/04/23 02:41:58;;;;;;;13.68;8.08;;;;;;;4.46;66.71;100577.67;114564;1194;103214;-85
2021/04/23 02:44:33;;;;;;;16.35;10.75;;;;;;;4.41;67.07;100577.68;114617;1196;103504;-85
2021/04/23 02:47:19;;;;;;;13.05;8.70;;;;;;;4.40;66.98;100580.28;114508;1196;103089;-86
2021/04/23 02:49:51;;;;;;;12.68;8.38;;;;;;;4.39;67.03;100579.42;114637;1196;103453;-86
2021/04/23 02:52:19;;;;;;;15.70;9.65;;;;;;;4.35;66.79;100578.52;114541;1196;103284;-85
2021/04/23 02:54:46;;;;;;;17.43;10.03;;;;;;;4.33;66.48;100577.66;114559;1196;103098;-87
2021/04/23 02:57:26;;;;;;;9.73;8.43;;;;;;;4.32;67.07;100577.66;114356;1196;103060;-86
2021/04/23 02:59:59;;;;;;;9.13;8.03;;;;;;;4.28;66.77;100576.77;114442;1196;103511;-85
2021/04/23 03:02:44;;;;;;;14.15;8.15;;;;;;;4.26;67.40;100575.00;114452;1196;103310;-86
2021/04/23 03:05:14;;;;;;;13.05;8.55;;;;;;;4.25;66.92;100574.13;114633;1196;103905;-88
2021/04/23 03:07:44;;;;;;;11.40;9.70;;;;;;;4.26;66.90;100575.86;114557;1196;103243;-87
2021/04/23 03:10:15;;;;;;;12.08;8.55;;;;;;;4.25;66.34;100574.13;114801;1196;103130;-89
2021/04/23 03:13:16;;;;;;;11.33;9.85;;;;;;;4.27;66.23;100588.17;114392;1196;103150;-85
2021/04/23 03:15:57;;;;;;;12.70;9.00;;;;;;;4.29;66.32;100581.17;114102;1200;103252;-88
2021/04/23 03:18:28;;;;;;;11.40;8.13;;;;;;;4.30;66.19;100582.03;114142;1200;103188;-87
2021/04/23 03:20:57;;;;;;;11.30;9.15;;;;;;;4.26;66.49;100585.55;114198;1196;103155;-88
2021/04/23 03:23:25;;;;;;;13.97;9.77;;;;;;;4.21;65.66;100585.52;114345;1200;103566;-89
2021/04/23 03:25:52;;;;;;;11.23;9.90;;;;;;;4.23;66.44;100585.55;114329;1197;103248;-85
2021/04/23 03:28:19;;;;;;;14.83;9.33;;;;;;;4.24;65.75;100592.55;114206;1196;103236;-87
2021/04/23 03:30:46;;;;;;;13.30;10.40;;;;;;;4.18;66.34;100594.33;114169;1197;103181;-88
2021/04/23 03:33:15;;;;;;;13.55;11.00;;;;;;;4.17;66.19;100591.66;114881;1196;103243;-87
2021/04/23 03:35:49;;;;;;;15.45;9.60;;;;;;;4.14;65.84;100597.80;114295;1200;103169;-86
2021/04/23 03:38:18;;;;;;;13.50;10.85;;;;;;;4.09;66.22;100594.30;114490;1196;103360;-88
2021/04/23 03:40:45;;;;;;;12.50;8.90;;;;;;;4.07;65.86;100601.30;114459;1196;103316;-86
2021/04/23 03:43:12;;;;;;;14.20;8.43;;;;;;;4.09;65.56;100603.94;114407;1196;103157;-86
2021/04/23 03:45:44;;;;;;;10.73;8.77;;;;;;;4.10;65.33;100617.11;114437;1196;103098;-88
2021/04/23 03:48:12;;;;;;;12.80;8.25;;;;;;;4.12;65.02;100615.38;114323;1196;103066;-87
2021/04/23 03:50:39;;;;;;;14.00;9.90;;;;;;;4.15;64.78;100611.88;114427;1197;103256;-87
2021/04/23 03:53:10;;;;;;;11.80;9.13;;;;;;;4.10;64.80;100619.75;114453;1196;103163;-88
2021/04/23 03:55:41;;;;;;;13.93;8.87;;;;;;;4.12;65.32;100622.38;114634;1196;103204;-87
2021/04/23 03:58:08;;;;;;;15.03;8.63;;;;;;;4.15;64.99;100625.05;114338;1196;103037;-87
2021/04/23 04:00:53;;;;;;;15.57;8.30;;;;;;;4.22;64.62;100625.95;114422;1196;103217;-86
2021/04/23 04:03:22;;;;;;;10.13;7.68;;;;;;;4.21;64.76;100630.33;114375;1197;103181;-86
2021/04/23 04:05:50;;;;;;;13.63;7.90;;;;;;;4.21;64.69;100630.33;114371;1196;103195;-85
2021/04/23 04:08:18;;;;;;;9.70;8.17;;;;;;;4.17;64.40;100633.83;114206;1196;103204;-88
2021/04/23 04:11:03;;;;;;;14.58;9.63;;;;;;;4.24;64.98;100635.63;114344;1196;103679;-87
2021/04/23 04:13:39;;;;;;;13.10;8.40;;;;;;;4.27;63.87;100637.41;114391;1196;103051;-87
2021/04/23 04:16:06;;;;;;;13.28;10.30;;;;;;;4.26;64.38;100641.77;114060;1196;103157;-85
2021/04/23 04:18:34;;;;;;;11.57;10.30;;;;;;;4.33;64.33;100640.03;114435;1196;103108;-85
2021/04/23 04:21:01;;;;;;;12.40;9.27;;;;;;;4.33;64.37;100650.58;114411;1196;103324;-86
2021/04/23 04:23:28;;;;;;;14.87;9.17;;;;;;;4.31;64.46;100654.98;114288;1196;103265;-85
2021/04/23 04:25:57;;;;;;;15.67;9.27;;;;;;;4.34;64.66;100653.25;114441;1196;103163;-84
2021/04/23 04:28:29;;;;;;;13.33;9.77;;;;;;;4.38;64.57;100662.03;114610;1199;103066;-86
2021/04/23 04:30:57;;;;;;;11.67;9.33;;;;;;;4.40;64.45;100662.93;115033;1196;103079;-86
2021/04/23 04:33:44;;;;;;;10.78;8.93;;;;;;;4.46;64.15;100664.70;114554;1196;103054;-85
2021/04/23 04:36:29;;;;;;;11.30;9.10;;;;;;;4.50;64.25;100662.06;114150;1200;103913;-86
2021/04/23 04:39:01;;;;;;;10.70;8.15;;;;;;;4.54;64.20;100665.59;114496;1196;103118;-86
2021/04/23 04:41:30;;;;;;;11.33;8.45;;;;;;;4.58;64.47;100672.64;116666;1196;102273;-87
2021/04/23 04:44:02;;;;;;;12.10;9.90;;;;;;;4.63;63.50;100676.17;115963;1197;102219;-86
2021/04/23 04:46:48;;;;;;;12.58;8.85;;;;;;;4.68;63.76;100673.56;114668;1196;103117;-87
2021/04/23 04:49:19;;;;;;;10.35;9.08;;;;;;;4.71;63.87;100676.20;114669;1196;103182;-84
2021/04/23 04:51:57;;;;;;;15.87;9.43;;;;;;;4.74;63.57;100675.33;114681;1196;103114;-86
2021/04/23 04:54:28;;;;;;;10.55;8.13;;;;;;;4.79;63.81;100674.45;114723;1196;103118;-84
2021/04/23 04:56:56;;;;;;;14.80;8.95;;;;;;;4.82;63.09;100677.08;114819;1196;103038;-86
2021/04/23 04:59:22;;;;;;;11.15;8.83;;;;;;;4.82;63.59;100685.00;114688;1196;103156;-86
2021/04/23 05:01:49;;;;;;;13.83;8.40;;;;;;;4.85;63.17;100689.41;114646;1196;103358;-86
2021/04/23 05:04:18;;;;;;;12.90;8.43;;;;;;;4.89;63.11;100690.30;114679;1196;103047;-86
2021/04/23 05:06:45;;;;;;;10.47;8.47;;;;;;;4.94;63.49;100686.78;114724;1196;103124;-85
2021/04/23 05:09:30;;;;;;;12.60;9.05;;;;;;;5.02;63.34;100689.44;114360;1199;103197;-87
2021/04/23 05:12:03;;;;;;;13.40;9.20;;;;;;;5.09;63.76;100691.22;114142;1200;103312;-85
2021/04/23 05:14:45;;;;;;;16.70;8.55;;;;;;;5.21;62.99;100698.23;114076;1200;103220;-86
2021/04/23 05:17:20;;;;;;;14.40;8.70;;;;;;;5.31;62.69;100691.22;114216;1200;103278;-85
2021/04/23 05:19:47;;;;;;;17.37;8.07;;;;;;;5.32;62.21;100699.14;114372;1199;103444;-85
2021/04/23 05:22:14;;;;;;;9.67;7.80;;;;;;;5.32;62.30;100703.55;114654;1199;103272;-86
2021/04/23 05:24:42;;;;;;;13.60;8.53;;;;;;;5.37;61.57;100696.48;115497;1199;102228;-88
2021/04/23 05:27:11;;;;;;;18.60;10.10;;;;;;;5.39;61.33;100697.38;114656;1199;103371;-87
2021/04/23 05:29:38;;;;;;;16.80;9.30;;;;;;;5.41;61.84;100692.98;115282;1199;103283;-88
2021/04/23 05:32:06;;;;;;;12.27;7.77;;;;;;;5.46;61.73;100708.82;115545;1199;103127;-86
2021/04/23 05:34:40;;;;;;;28.27;19.43;;;;;;;5.54;61.73;100699.13;114617;1199;103179;-86
2021/04/23 05:37:11;;;;;;;11.88;7.83;;;;;;;5.63;61.36;100704.40;114204;1200;103481;-89
2021/04/23 05:39:48;;;;;;;10.60;8.10;;;;;;;5.75;60.93;100698.22;113775;1199;103128;-82
2021/04/23 05:42:23;;;;;;;11.63;7.07;;;;;;;5.85;60.33;100707.91;113767;1200;103098;-86
2021/04/23 05:44:56;;;;;;;9.83;8.65;;;;;;;5.95;60.43;100707.88;114075;1203;103287;-85
2021/04/23 05:47:25;;;;;;;14.55;9.35;;;;;;;6.05;60.05;100706.12;114359;1196;103239;-86
2021/04/23 05:49:52;;;;;;;12.10;8.98;;;;;;;6.08;59.65;100701.71;114557;1196;103091;-87
2021/04/23 05:52:19;;;;;;;15.53;8.67;;;;;;;6.16;60.19;100702.56;114649;1196;103127;-87
2021/04/23 05:54:46;;;;;;;17.00;9.90;;;;;;;6.19;59.93;100704.31;114648;1196;103117;-87
2021/04/23 05:57:12;;;;;;;15.38;9.18;;;;;;;6.18;60.01;100706.09;114689;1196;103127;-88
2021/04/23 05:59:39;;;;;;;16.20;9.57;;;;;;;6.23;60.23;100711.35;114769;1196;103057;-88
2021/04/23 06:02:06;;;;;;;13.40;9.10;;;;;;;6.28;59.85;100716.64;114674;1196;103108;-87
2021/04/23 06:04:33;;;;;;;14.37;8.57;;;;;;;6.33;59.66;100718.38;114615;1196;103682;-85
2021/04/23 06:07:00;;;;;;;14.97;8.93;;;;;;;6.36;59.35;100718.36;114614;1196;103156;-84
2021/04/23 06:09:35;;;;;;;12.90;9.10;;;;;;;6.34;59.67;100722.79;114958;1196;103193;-88
2021/04/23 06:12:06;;;;;;;15.20;9.88;;;;;;;6.40;59.74;100719.23;114928;1196;103204;-84
2021/04/23 06:14:39;;;;;;;10.30;8.65;;;;;;;6.46;59.82;100723.61;114649;1198;103137;-87
2021/04/23 06:17:09;;;;;;;11.53;8.40;;;;;;;6.56;59.55;100714.75;114696;1195;103831;-86
2021/04/23 06:19:40;;;;;;;13.30;8.27;;;;;;;6.60;59.07;100719.14;114714;1196;103281;-88
2021/04/23 06:22:18;;;;;;;20.23;13.90;;;;;;;6.74;59.03;100723.48;114713;1196;103080;-84
2021/04/23 06:24:52;;;;;;;15.03;12.58;;;;;;;6.82;58.32;100727.86;114738;1196;103236;-84
2021/04/23 06:27:23;;;;;;;14.93;7.75;;;;;;;6.82;58.25;100721.67;114627;1196;103121;-86
2021/04/23 06:29:51;;;;;;;15.83;11.00;;;;;;;6.92;58.53;100726.03;114661;1196;103092;-86
2021/04/23 06:32:32;;;;;;;12.60;8.40;;;;;;;7.02;57.58;100725.09;114575;1196;103090;-84
2021/04/23 06:34:59;;;;;;;10.50;8.10;;;;;;;7.06;57.23;100725.06;114753;1196;103095;-86
2021/04/23 06:37:26;;;;;;;9.75;7.35;;;;;;;7.07;57.28;100724.17;114722;1196;103198;-84
2021/04/23 06:39:57;;;;;;;13.67;9.57;;;;;;;7.16;57.27;100726.77;114678;1196;103729;-83
2021/04/23 06:42:39;;;;;;;22.05;9.03;;;;;;;7.16;56.05;100716.17;114622;1196;103091;-89
2021/04/23 06:45:22;;;;;;;11.65;8.35;;;;;;;7.10;56.82;100717.07;114635;1196;103934;-85
2021/04/23 06:47:54;;;;;;;13.50;7.07;;;;;;;7.15;56.33;100714.41;114903;1196;103447;-85
2021/04/23 06:50:26;;;;;;;11.00;8.83;;;;;;;7.22;56.01;100720.53;114603;1197;103086;-83
2021/04/23 06:52:59;;;;;;;59.83;42.80;;;;;;;7.31;55.75;100718.69;114618;1196;104115;-93
2021/04/23 06:55:31;;;;;;;13.08;8.93;;;;;;;7.41;56.14;100715.97;114568;1196;103092;-85
2021/04/23 06:57:58;;;;;;;11.60;9.63;;;;;;;7.53;56.02;100721.16;114525;1196;103130;-89
2021/04/23 07:00:40;;;;;;;12.03;10.03;;;;;;;7.56;55.38;100718.50;114686;1200;103122;-86
2021/04/23 07:03:10;;;;;;;10.15;8.48;;;;;;;7.52;55.08;100722.07;114518;1196;103107;-87
2021/04/23 07:05:39;;;;;;;10.13;8.43;;;;;;;7.52;54.46;100727.38;114758;1196;103127;-80
2021/04/23 07:08:10;;;;;;;13.80;8.37;;;;;;;7.51;55.09;100731.77;115044;1196;103166;-84
2021/04/23 07:10:41;;;;;;;9.85;8.00;;;;;;;7.63;54.88;100733.44;114635;1196;103083;-81
2021/04/23 07:13:13;;;;;;;11.53;9.13;;;;;;;7.74;55.42;100720.08;115136;1196;103070;-83
2021/04/23 07:15:45;;;;;;;10.20;8.07;;;;;;;7.90;55.27;100715.51;114597;1196;103194;-84
2021/04/23 07:18:12;;;;;;;14.20;8.53;;;;;;;8.06;54.07;100720.66;114696;1196;103261;-86
2021/04/23 07:20:46;;;;;;;14.07;8.50;;;;;;;8.23;53.72;100717.83;114402;1196;103133;-85
2021/04/23 07:23:15;;;;;;;11.55;7.40;;;;;;;8.35;52.67;100713.23;114754;1196;103129;-89
2021/04/23 07:25:47;;;;;;;19.53;11.30;;;;;;;8.43;51.98;100713.15;114570;1196;103501;-85
2021/04/23 07:28:14;;;;;;;13.05;7.98;;;;;;;8.45;51.91;100716.71;114556;1196;103051;-83
2021/04/23 07:30:42;;;;;;;15.57;7.87;;;;;;;8.46;51.16;100718.44;114639;1196;103258;-80
2021/04/23 07:33:13;;;;;;;12.57;6.03;;;;;;;8.44;50.63;100714.05;114585;1196;103262;-84
2021/04/23 07:35:41;;;;;;;12.18;6.13;;;;;;;8.40;51.70;100723.81;114568;1196;103510;-83
2021/04/23 07:38:08;;;;;;;7.90;6.47;;;;;;;8.40;51.22;100713.20;114595;1196;103259;-90
2021/04/23 07:40:36;;;;;;;11.00;7.40;;;;;;;8.42;51.14;100711.39;114628;1196;103268;-83
2021/04/23 07:43:07;;;;;;;12.23;7.23;;;;;;;8.34;51.01;100711.50;114523;1196;103076;-87
2021/04/23 07:45:54;;;;;;;11.30;7.17;;;;;;;8.29;51.49;100704.47;114664;1196;103060;-85
2021/04/23 07:48:27;;;;;;;9.97;6.63;;;;;;;8.37;51.18;100710.59;114552;1196;103091;-85
2021/04/23 07:50:56;;;;;;;13.13;5.95;;;;;;;8.53;50.40;100709.52;114740;1197;103230;-87
2021/04/23 07:53:23;;;;;;;14.33;8.98;;;;;;;8.59;49.20;100699.73;114658;1196;104735;-86
2021/04/23 07:55:51;;;;;;;9.65;5.90;;;;;;;8.57;48.88;100704.16;114684;1196;103124;-88
2021/04/23 07:58:18;;;;;;;16.50;12.23;;;;;;;8.60;49.77;100707.66;114758;1196;103876;-86
2021/04/23 08:00:45;;;;;;;16.10;10.35;;;;;;;8.62;49.28;100705.84;114709;1196;103550;-85
2021/04/23 08:03:12;;;;;;;10.10;7.50;;;;;;;8.67;49.74;100716.42;114615;1196;103082;-86
2021/04/23 08:05:40;;;;;;;7.73;5.65;;;;;;;8.83;48.45;100712.65;114572;1196;103057;-89
2021/04/23 08:08:07;;;;;;;6.80;5.37;;;;;;;8.94;48.28;100711.63;114733;1196;103197;-84
2021/04/23 08:10:35;;;;;;;7.17;5.73;;;;;;;9.04;48.44;100710.59;114465;1196;103082;-90
2021/04/23 08:13:09;;;;;;;7.10;5.77;;;;;;;9.20;48.83;100714.77;114809;1196;103188;-89
2021/04/23 08:15:39;;;;;;;8.80;6.08;;;;;;;9.38;48.97;100712.70;114713;1196;103332;-90
2021/04/23 08:18:06;;;;;;;8.47;7.13;;;;;;;9.51;48.54;100710.73;114740;1196;103073;-87
2021/04/23 08:20:34;;;;;;;9.97;6.60;;;;;;;9.62;48.41;100713.20;114543;1196;103236;-84
2021/04/23 08:23:01;;;;;;;8.60;6.00;;;;;;;9.80;48.84;100709.36;114658;1196;103101;-83
2021/04/23 08:25:28;;;;;;;10.85;8.03;;;;;;;9.97;48.35;100706.36;114445;1199;103194;-88
2021/04/23 08:27:55;;;;;;;8.05;5.68;;;;;;;10.11;46.71;100700.79;114699;1196;103105;-86
2021/04/23 08:30:27;;;;;;;22.30;16.50;;;;;;;10.24;45.39;100698.77;114360;1196;103278;-89
2021/04/23 08:32:58;;;;;;;10.07;6.17;;;;;;;10.31;44.70;100695.06;114662;1196;103128;-86
2021/04/23 08:35:41;;;;;;;5.20;4.70;;;;;;;10.37;44.01;100697.64;114701;1196;103120;-84
2021/04/23 08:38:09;;;;;;;12.10;6.55;;;;;;;10.44;43.57;100698.39;114608;1196;103073;-87
2021/04/23 08:40:36;;;;;;;7.77;5.23;;;;;;;10.48;41.76;100702.75;114426;1196;103232;-81
2021/04/23 08:43:08;;;;;;;7.00;5.53;;;;;;;10.46;42.74;100697.45;114661;1196;103210;-84
2021/04/23 08:45:36;;;;;;;8.50;6.38;;;;;;;10.66;44.07;100697.02;114690;1196;103254;-88
2021/04/23 08:48:13;;;;;;;12.47;6.40;;;;;;;10.83;41.86;100699.29;114619;1196;103092;-86
2021/04/23 08:50:48;;;;;;;15.03;7.25;;;;;;;11.09;42.45;100695.16;114800;1196;103181;-80
2021/04/23 08:53:26;;;;;;;9.70;6.08;;;;;;;11.26;41.22;100686.73;114695;1196;103130;-85
2021/04/23 08:55:59;;;;;;;7.70;5.23;;;;;;;11.63;41.45;100683.14;114221;1196;103897;-84
2021/04/23 08:58:27;;;;;;;9.53;6.18;;;;;;;11.54;41.75;100686.05;114520;1196;103150;-87
2021/04/23 09:01:03;;;;;;;8.55;5.60;;;;;;;11.30;41.17;100695.55;114655;1196;103347;-87
2021/04/23 09:03:37;;;;;;;12.05;5.08;;;;;;;11.02;40.02;100696.20;114897;1196;103110;-84
2021/04/23 09:06:20;;;;;;;7.75;5.60;;;;;;;10.78;41.08;100695.88;114878;1196;103530;-85
2021/04/23 09:08:56;;;;;;;8.00;5.08;;;;;;;10.62;41.69;100694.45;114796;1196;103137;-86
2021/04/23 09:11:41;;;;;;;14.40;10.28;;;;;;;10.51;43.08;100695.55;114820;1196;103105;-86
2021/04/23 09:14:22;;;;;;;9.90;6.03;;;;;;;10.42;42.94;100710.84;114734;1196;103166;-85
2021/04/23 09:16:56;;;;;;;4.57;3.67;;;;;;;10.19;40.63;100699.72;114842;1196;103565;-82
2021/04/23 09:19:33;;;;;;;9.23;4.73;;;;;;;9.98;42.58;100701.03;114855;1196;102056;-83
2021/04/23 09:22:21;;;;;;;9.83;6.03;;;;;;;9.85;45.32;100700.38;114116;1196;103508;-80
2021/04/23 09:25:12;;;;;;;6.18;5.58;;;;;;;10.59;44.99;100690.06;114428;1196;103125;-83
2021/04/23 09:27:51;;;;;;;6.15;4.73;;;;;;;12.34;40.33;100683.02;114651;1196;103287;-82
2021/04/23 09:30:31;;;;;;;7.23;4.03;;;;;;;13.37;36.30;100679.84;114157;1196;103137;-81
2021/04/23 09:33:24;;;;;;;5.80;3.33;;;;;;;13.62;33.99;100688.84;114708;1196;103188;-81
2021/04/23 09:35:59;;;;;;;6.10;2.97;;;;;;;12.96;33.21;100682.03;114626;1196;103067;-84
2021/04/23 09:38:44;;;;;;;7.88;3.80;;;;;;;12.28;35.85;100680.55;114088;1196;103516;-87
2021/04/23 09:41:21;;;;;;;4.50;3.73;;;;;;;12.23;37.16;100669.12;114462;1196;103019;-83
2021/04/23 09:43:51;;;;;;;6.70;4.20;;;;;;;14.14;35.95;100665.58;114629;1196;103173;-84
2021/04/23 09:46:35;;;;;;;5.88;4.08;;;;;;;16.19;32.26;100658.15;114430;1196;103098;-85
2021/04/23 09:49:22;;;;;;;9.78;4.35;;;;;;;18.08;30.33;100644.41;114306;1196;103266;-86
2021/04/23 09:51:50;;;;;;;5.30;3.28;;;;;;;19.78;28.10;100625.74;114587;1196;103073;-82
2021/04/23 09:54:25;;;;;;;7.00;4.00;;;;;;;21.13;26.04;100637.08;113949;1196;103204;-81
2021/04/23 09:56:53;;;;;;;6.43;3.40;;;;;;;21.54;24.34;100630.73;114043;1196;103198;-81
2021/04/23 09:59:24;;;;;;;6.83;2.70;;;;;;;22.04;21.69;100620.86;114203;1196;103169;-83
2021/04/23 10:01:55;;;;;;;4.13;2.73;;;;;;;20.35;22.04;100622.22;114530;1196;103268;-81
2021/04/23 10:04:28;;;;;;;3.45;2.28;;;;;;;18.76;23.39;100618.22;114050;1196;103123;-86
2021/04/23 10:07:27;;;;;;;11.10;3.23;;;;;;;19.06;24.33;100623.72;114239;1197;103374;-80
2021/04/23 10:09:59;;;;;;;6.45;2.40;;;;;;;20.59;21.75;100629.73;113895;1196;103779;-80
2021/04/23 10:12:53;;;;;;;8.47;3.27;;;;;;;21.60;20.87;100632.99;114624;1196;103278;-78
2021/04/23 10:15:26;;;;;;;11.10;3.80;;;;;;;21.77;20.30;100622.84;113594;1196;103191;-79
2021/04/23 10:18:01;;;;;;;7.03;2.70;;;;;;;21.66;22.01;100623.56;114112;1196;104127;-80
2021/04/23 10:20:43;;;;;;;7.70;3.43;;;;;;;21.23;21.30;100627.34;114229;1196;103114;-79
2021/04/23 10:23:17;;;;;;;34.30;30.18;;;;;;;22.51;21.20;100617.58;114385;1196;103146;-79
2021/04/23 10:25:46;;;;;;;6.87;3.53;;;;;;;23.32;19.26;100610.66;113951;1195;103226;-79
2021/04/23 10:28:19;;;;;;;4.10;2.58;;;;;;;23.61;19.48;100606.69;114242;1196;103169;-81
2021/04/23 10:30:51;;;;;;;4.45;2.45;;;;;;;21.51;18.94;100631.77;113803;1196;103309;-78
2021/04/23 10:33:19;;;;;;;3.58;2.70;;;;;;;19.88;21.73;100626.95;114176;1196;103128;-79
2021/04/23 10:35:48;;;;;;;5.45;2.68;;;;;;;18.74;22.56;100649.80;113896;1196;103092;-81
2021/04/23 10:38:35;;;;;;;4.40;2.90;;;;;;;17.78;24.56;100704.33;113828;1196;103083;-78
2021/04/23 10:41:11;;;;;;;8.97;2.63;;;;;;;16.59;28.66;100701.14;113936;1196;103159;-79
2021/04/23 10:43:59;;;;;;;9.27;2.60;;;;;;;14.85;32.02;100692.38;114042;1196;103305;-80
2021/04/23 10:46:32;;;;;;;13.98;2.95;;;;;;;13.61;35.55;100697.78;114358;1196;103088;-80
2021/04/23 10:49:09;;;;;;;3.90;2.40;;;;;;;12.57;39.58;100716.20;113828;1196;103226;-82
2021/04/23 10:51:37;;;;;;;7.30;3.37;;;;;;;11.78;42.25;100731.69;114488;1196;103766;-81
2021/04/23 10:54:15;;;;;;;3.53;2.43;;;;;;;11.06;44.62;100753.85;114108;1196;103085;-77
2021/04/23 10:56:53;;;;;;;5.10;3.13;;;;;;;10.41;46.28;100743.70;114119;1196;103181;-82
2021/04/23 10:59:23;;;;;;;5.68;2.40;;;;;;;9.97;49.28;100736.53;114113;1196;103293;-84
2021/04/23 11:01:52;;;;;;;6.37;3.33;;;;;;;9.74;49.54;100722.75;114173;1196;103098;-84
2021/04/23 11:04:24;;;;;;;3.83;2.55;;;;;;;9.62;50.17;100750.44;114048;1196;103227;-80
2021/04/23 11:07:07;;;;;;;4.10;3.27;;;;;;;9.35;51.13;100757.95;114234;1197;103123;-79
2021/04/23 11:10:02;;;;;;;3.00;2.68;;;;;;;9.18;51.90;100769.73;114186;1196;103088;-81
2021/04/23 11:12:37;;;;;;;4.85;3.60;;;;;;;9.02;52.30;100773.48;114092;1196;103210;-84
2021/04/23 11:15:17;;;;;;;4.23;3.50;;;;;;;8.90;53.22;100785.16;114263;1196;103277;-82
2021/04/23 11:17:47;;;;;;;4.65;3.65;;;;;;;8.68;53.38;100781.91;114337;1196;103209;-84
2021/04/23 11:20:24;;;;;;;4.80;3.73;;;;;;;8.54;54.69;100803.30;114217;1196;103127;-82
2021/04/23 11:22:59;;;;;;;6.10;4.33;;;;;;;8.45;55.82;100812.27;113984;1196;103227;-83
2021/04/23 11:25:31;;;;;;;4.63;4.23;;;;;;;8.33;56.72;100822.95;114142;1196;103130;-80
2021/04/23 11:28:08;;;;;;;3.80;3.50;;;;;;;8.11;58.06;100833.78;114191;1196;103092;-83
2021/04/23 11:31:05;;;;;;;6.35;5.10;;;;;;;8.03;58.41;100839.16;115310;1196;103132;-84
2021/04/23 11:33:52;;;;;;;14.53;10.90;;;;;;;7.84;58.70;100843.73;114278;1199;103130;-84
2021/04/23 11:36:36;;;;;;;6.73;4.37;;;;;;;7.62;61.24;100863.34;114283;1196;103194;-83
2021/04/23 11:39:12;;;;;;;5.98;4.98;;;;;;;7.38;60.58;100851.13;114791;1196;103194;-84